Terminal Aerodrome Forecast
Issued by NWS

Home | Current Version | Previous Version | Text Only | Print | Product List | Glossary On
Versions: 1 2 3 4 5 6 7 8 9 10 11 12 13
000
FTUS44 KEPZ 261151
TAFDMN
TAF
KDMN 261151Z 2612/2712 03010KT P6SM SCT100 BKN250
     FM262100 15008KT P6SM VCTS SCT090CB SCT150
     FM270600 06008KT P6SM BKN120=

USA.gov is the U.S. government's official web portal to all federal, state and local government web resources and services.